キエフ/ボリースピリ の空港の天気 - METARとTAF

ボリースピリ国際空港(キエフ) ( UKBB / KBP ) - ウクライナ ボリスピリ (キエフ近郊)
飛行場実況気象(Metar)
観測時間07/21 20:14 EEST (07/21 17:14 UTC)
風向・風速西北西 3m/s
視程10km以上
天気現象周辺で雷
全天の4割程度の雲 雲底高度 850m
全天の8割程度の雲 雲底高度 980m
気温22℃
湿度83%
気圧1006hPa
METARUKBB 211714Z 29003MPS 250V320 9999 VCTS SCT028CB BKN032 22/19 Q1006 R88/D TEMPO VRB10G17MPS 1000 TSRA SQ
過去の天気等 Google飛行場航空写真 Wunderground天気予報

過去48時間のMETAR

飛行場予報(TAF)
発表時間: 7/21 14:02 EEST (7/21 11:02 UTC)
予報対象時間: 21日15時 EEST ~ 22日15時 EEST
風向・風速西北西 4m/s 瞬間風速 9m/s
視程10km以上
全天の8割程度の雲 雲底高度 910m
21日15時 EEST ~ 21日21時 EEST に一時的に
風向・風速不定 10m/s 瞬間風速 17m/s
視程1000m
天気現象雷雨ひょう スコール
全天の8割程度の雲 雲底高度 210m
全天の8割程度の積乱雲 雲底高度 610m
21日21時 EEST ~ 22日9時 EEST に一時的に
視程1400m
天気現象弱いしゅう雨 もや
全天の4割程度の雲 雲底高度 210m
全天の4割程度の積乱雲 雲底高度 610m
22日9時 EEST ~ 22日15時 EEST に一時的に
風向・風速不定 10m/s 瞬間風速 17m/s
視程1000m
天気現象雷雨ひょう スコール
全天の8割程度の雲 雲底高度 210m
全天の8割程度の積乱雲 雲底高度 610m
TAF UKBB 211102Z 2112/2212 30004G09MPS 9999 BKN030 TX26/2212Z TN17/2202Z
TEMPO 2112/2118 VRB10G17MPS 1000 TSRAGR SQ BKN007 BKN020CB
TEMPO 2118/2206 1400 -SHRA BR SCT007 SCT020CB
TEMPO 2206/2212 VRB10G17MPS 1000 TSRAGR SQ BKN007 BKN020CB